This is the latest recevied weather packets stored in our database for station/object KO6HRZ. If no packets are shown the sender has not sent any weather packets the latest 10 day(s).
| Time | Temp. | Humidity | Pressure | Rain* | Wind** | Luminosity | Snow |
|---|---|---|---|---|---|---|---|
| 1777052121 | 20.56° C | 61% | 1014.1 hPa | 0 mm | - | 823 W/m² | - |
| 1777051520 | 20° C | 62% | 1014.1 hPa | 0 mm | - | 678 W/m² | - |
| 1777050918 | 19.44° C | 64% | 1014.2 hPa | 0 mm | - | 646 W/m² | - |
| 1777050314 | 18.33° C | 67% | 1014.1 hPa | 0 mm | - | 617 W/m² | - |
| 1777049714 | 18.33° C | 68% | 1014.3 hPa | 0 mm | - | 575 W/m² | - |
| 1777049108 | 17.78° C | 69% | 1014.2 hPa | 0 mm | - | 513 W/m² | - |
| 1777048505 | 16.67° C | 73% | 1014.2 hPa | 0 mm | - | 481 W/m² | - |
| 1777047901 | 16.67° C | 75% | 1014.4 hPa | 0 mm | - | 368 W/m² | - |
| 1777047298 | 16.67° C | 75% | 1014.6 hPa | 0 mm | - | 400 W/m² | - |
| 1777046697 | 15.56° C | 77% | 1014.3 hPa | 0 mm | - | 229 W/m² | - |
| 1777046094 | 15.56° C | 76% | 1014.5 hPa | 0 mm | - | 361 W/m² | - |
| 1777045493 | 15.56° C | 77% | 1014.5 hPa | 0 mm | - | 322 W/m² | - |
| 1777044890 | 14.44° C | 81% | 1014.4 hPa | 0 mm | - | 283 W/m² | - |
| 1777044289 | 14.44° C | 82% | 1014.4 hPa | 0 mm | - | 230 W/m² | - |
| 1777043687 | 13.89° C | 83% | 1014.6 hPa | 0 mm | - | 153 W/m² | - |
| 1777043084 | 13.33° C | 86% | 1014.5 hPa | 0 mm | - | 133 W/m² | - |
| 1777042481 | 12.22° C | 88% | 1014.6 hPa | 0 mm | - | 110 W/m² | - |
| 1777041880 | 11.67° C | 88% | 1014.5 hPa | 0 mm | - | 50 W/m² | - |
| 1777041278 | 11.67° C | 88% | 1014.6 hPa | 0 mm | - | 45 W/m² | - |
| 1777040677 | 11.67° C | 89% | 1014.4 hPa | 0 mm | - | 42 W/m² | - |
| 1777040073 | 11.11° C | 89% | 1014.3 hPa | 0 mm | - | 38 W/m² | - |
| 1777039470 | 11.11° C | 89% | 1014.4 hPa | 0 mm | - | 29 W/m² | - |
| 1777038869 | 10.56° C | 90% | 1014.2 hPa | 0 mm | - | 23 W/m² | - |
| 1777038266 | 10.56° C | 90% | 1014.3 hPa | 0 mm | - | 15 W/m² | - |
| 1777037664 | 10.56° C | 91% | 1014.1 hPa | 0 mm | - | 9 W/m² | - |
* Rain latest hour (hover to see other rain measurements)
** Current wind speed in m/s (hover to see current wind gust speed)